Weather History for KBKD - March, 2014

Change the Weather History Date:

Thursday, March 27, 2014

  Actual Average (KABI) Record (KABI)
Temperature  
Mean Temperature 74 °F 59 °F  
Max Temperature 87 °F 72 °F 92 °F (1971)
Min Temperature 60 °F 47 °F 19 °F (1931)
Degree Days  
Heating Degree Days 0 7  
Month to date heating degree days 271  
Since 1 July heating degree days 2404  
Cooling Degree Days 8 1  
Month to date cooling degree days 22  
Year to date cooling degree days 27  
Growing Degree Days 24 (Base 50)    
Moisture  
Dew Point 44 °F    
Average Humidity 45    
Maximum Humidity 81    
Minimum Humidity 10    
Precipitation  
Precipitation 0.00 in 0.05 in 1.50 in (1923)
Month to date precipitation 1.52  
Year to date precipitation 3.90  
Sea Level Pressure  
Sea Level Pressure 29.73 in    
Wind  
Wind Speed 17 mph (SW)    
Max Wind Speed 26 mph    
Max Gust Speed 36 mph    
Visibility 10 miles    
Events      
T = Trace of Precipitation, MM = Missing Value Source: NWS Daily Summary

Daily Weather History Graph

Daily Weather History Graph

Search for Another Location

Airport or City:

Trip Planner

Search our weather history database for the weather conditions in past years. The results will help you decide how hot, cold, wet, or windy it might be!

Date:

Astronomy

Mar. 27, 2014 Rise Set
Actual Time 7:30 AM CDT 7:52 PM CDT
Civil Twilight 7:05 AM CDT 8:16 PM CDT
Nautical Twilight 6:36 AM CDT 8:45 PM CDT
Astronomical Twilight 6:07 AM CDT 9:15 PM CDT
Moon 5:11 AM CDT (3/27) 4:50 PM CDT (3/27)
Length of Visible Light 13h 11m
Length of Day
12h 22m
Waning Crescent, 13% of the Moon is Illuminated
Mar 27
Waning Crescent
Mar 30
New
Apr 7
First Quarter
Apr 15
Full
Apr 22
Last Quarter

Hourly Weather History & Observations

Time (CDT) Temp. Dew Point Humidity Pressure Visibility Wind Dir Wind Speed Gust Speed Precip Events Conditions
12:15 AM 61.7 °F 53.6 °F 75% 29.80 in 10.0 mi South 20.7 mph 33.4 mph N/A   Overcast
12:35 AM 61.9 °F 53.6 °F 74% 29.79 in 10.0 mi South 20.7 mph 33.4 mph N/A   Overcast
12:55 AM 62.1 °F 53.8 °F 74% 29.78 in 10.0 mi South 20.7 mph 31.1 mph N/A   Overcast
1:15 AM 62.1 °F 54.1 °F 75% 29.78 in 10.0 mi South 24.2 mph 35.7 mph N/A   Overcast
1:35 AM 61.9 °F 54.5 °F 77% 29.77 in 10.0 mi South 21.9 mph 31.1 mph N/A   Overcast
1:55 AM 61.7 °F 54.9 °F 78% 29.77 in 10.0 mi South 20.7 mph 31.1 mph N/A   Overcast
2:15 AM 61.9 °F 55.2 °F 79% 29.77 in 10.0 mi South 19.6 mph 27.6 mph N/A   Overcast
2:35 AM 61.9 °F 55.4 °F 79% 29.76 in 10.0 mi South 19.6 mph 28.8 mph N/A   Overcast
2:55 AM 61.9 °F 55.4 °F 79% 29.76 in 10.0 mi South 20.7 mph 27.6 mph N/A   Overcast
3:15 AM 62.1 °F 55.8 °F 80% 29.75 in 10.0 mi South 21.9 mph 27.6 mph N/A   Overcast
3:35 AM 61.9 °F 55.9 °F 81% 29.75 in 10.0 mi South 20.7 mph 28.8 mph N/A   Overcast
3:55 AM 62.1 °F 56.3 °F 81% 29.74 in 10.0 mi South 18.4 mph 24.2 mph N/A   Overcast
4:15 AM 62.2 °F 56.3 °F 81% 29.73 in 10.0 mi South 16.1 mph 25.3 mph N/A   Overcast
4:35 AM 62.6 °F 56.3 °F 80% 29.72 in 10.0 mi South 18.4 mph 28.8 mph N/A   Overcast
4:55 AM 62.8 °F 56.3 °F 79% 29.72 in 10.0 mi South 18.4 mph 25.3 mph N/A   Overcast
5:15 AM 63.0 °F 56.3 °F 79% 29.72 in 10.0 mi South 16.1 mph 25.3 mph N/A   Overcast
5:35 AM 63.5 °F 56.5 °F 78% 29.72 in 10.0 mi South 12.7 mph 18.4 mph N/A   Overcast
5:55 AM 63.7 °F 56.5 °F 77% 29.73 in 10.0 mi South 9.2 mph - N/A   Overcast
6:15 AM 63.9 °F 56.7 °F 77% 29.73 in 10.0 mi South 8.1 mph - N/A   Overcast
6:35 AM 64.4 °F 56.7 °F 76% 29.73 in 10.0 mi South 10.4 mph - N/A   Overcast
6:55 AM 65.3 °F 56.7 °F 74% 29.74 in 10.0 mi SSW 11.5 mph - N/A   Overcast
7:15 AM 65.7 °F 56.8 °F 73% 29.74 in 10.0 mi SSW 16.1 mph - N/A   Overcast
7:35 AM 65.8 °F 56.8 °F 73% 29.74 in 10.0 mi SSW 16.1 mph 20.7 mph N/A   Overcast
7:55 AM 65.8 °F 57.2 °F 74% 29.73 in 10.0 mi SSW 17.3 mph 23.0 mph N/A   Overcast
8:15 AM 66.2 °F 57.2 °F 73% 29.74 in 10.0 mi SSW 17.3 mph 25.3 mph N/A   Mostly Cloudy
8:35 AM 67.5 °F 57.6 °F 70% 29.75 in 10.0 mi SSW 17.3 mph 24.2 mph N/A   Clear
8:55 AM 68.4 °F 57.6 °F 68% 29.75 in 10.0 mi SSW 18.4 mph 25.3 mph N/A   Clear
9:15 AM 69.8 °F 57.7 °F 65% 29.76 in 10.0 mi SW 20.7 mph 26.5 mph N/A   Scattered Clouds
9:35 AM 70.9 °F 57.4 °F 62% 29.76 in 10.0 mi SSW 23.0 mph 32.2 mph N/A   Scattered Clouds
9:55 AM 72.3 °F 57.2 °F 59% 29.76 in 10.0 mi SW 23.0 mph 31.1 mph N/A   Scattered Clouds
10:15 AM 73.2 °F 57.0 °F 57% 29.76 in 10.0 mi SSW 24.2 mph 28.8 mph N/A   Scattered Clouds
10:35 AM 73.6 °F 56.5 °F 55% 29.76 in 10.0 mi SW 18.4 mph 33.4 mph N/A   Clear
10:55 AM 75.4 °F 56.3 °F 51% 29.76 in 10.0 mi SW 20.7 mph 28.8 mph N/A   Clear
11:15 AM 77.4 °F 54.5 °F 45% 29.75 in 10.0 mi SW 19.6 mph 26.5 mph N/A   Clear
11:35 AM 78.3 °F 52.3 °F 40% 29.76 in 10.0 mi WSW 20.7 mph 31.1 mph N/A   Clear
11:55 AM 79.2 °F 49.3 °F 35% 29.76 in 10.0 mi WSW 24.2 mph 33.4 mph N/A   Clear
12:15 PM 81.3 °F 48.2 °F 31% 29.75 in 10.0 mi WNW 26.5 mph 33.4 mph N/A   Clear
12:35 PM 82.2 °F 44.8 °F 27% 29.76 in 10.0 mi West 24.2 mph 29.9 mph N/A   Scattered Clouds
12:55 PM 83.3 °F 44.8 °F 26% 29.74 in 10.0 mi West 16.1 mph 29.9 mph N/A   Scattered Clouds
1:15 PM 82.8 °F 41.9 °F 24% 29.74 in 10.0 mi West 17.3 mph 25.3 mph N/A   Clear
1:35 PM 83.3 °F 40.5 °F 22% 29.73 in 10.0 mi West 17.3 mph 21.9 mph N/A   Clear
1:55 PM 83.5 °F 38.7 °F 20% 29.73 in 10.0 mi WNW 17.3 mph 29.9 mph N/A   Clear
2:15 PM 83.8 °F 37.2 °F 19% 29.72 in 10.0 mi WNW 17.3 mph 24.2 mph N/A   Clear
2:35 PM 86.4 °F 34.3 °F 16% 29.71 in 10.0 mi West 12.7 mph 28.8 mph N/A   Clear
2:55 PM 85.1 °F 31.5 °F 15% 29.70 in 10.0 mi West 20.7 mph 27.6 mph N/A   Clear
3:15 PM 84.6 °F 32.9 °F 16% 29.70 in 10.0 mi WNW 17.3 mph 23.0 mph N/A   Clear
3:35 PM 82.0 °F 36.5 °F 20% 29.70 in 10.0 mi NW 17.3 mph 25.3 mph N/A   Clear
3:55 PM 82.4 °F 35.6 °F 19% 29.69 in 10.0 mi WNW 15.0 mph 19.6 mph N/A   Clear
4:15 PM 85.6 °F 33.6 °F 16% 29.69 in 10.0 mi NW 13.8 mph 21.9 mph N/A   Clear
4:35 PM 86.4 °F 32.0 °F 14% 29.68 in 10.0 mi WNW 15.0 mph 19.6 mph N/A   Clear
4:55 PM 87.1 °F 30.6 °F 13% 29.67 in 10.0 mi WSW 10.4 mph 21.9 mph N/A   Clear
5:15 PM 87.3 °F 29.3 °F 12% 29.66 in 10.0 mi WSW 9.2 mph - N/A   Clear
5:35 PM 87.6 °F 28.8 °F 12% 29.66 in 10.0 mi WSW 10.4 mph 20.7 mph N/A   Clear
5:55 PM 86.9 °F 28.4 °F 12% 29.66 in 10.0 mi West 6.9 mph 13.8 mph N/A   Clear
6:15 PM 87.6 °F 23.4 °F 10% 29.66 in 7.0 mi West 17.3 mph 25.3 mph N/A   Mostly Cloudy
6:35 PM 86.4 °F 24.6 °F 11% 29.66 in 7.0 mi West 13.8 mph 21.9 mph N/A   Scattered Clouds
7:15 PM 83.7 °F 24.1 °F 11% 29.67 in 7.0 mi WNW 9.2 mph - N/A   Scattered Clouds
7:30 PM 81.9 °F 24.6 °F 12% 29.67 in 7.0 mi WNW 6.9 mph - N/A   Clear
7:55 PM 79.5 °F 24.6 °F 13% 29.68 in 7.0 mi West 3.5 mph - N/A   Clear
8:15 PM 78.3 °F 23.9 °F 13% 29.69 in 10.0 mi Calm Calm - N/A   Clear
8:35 PM 76.3 °F 23.7 °F 14% 29.70 in 10.0 mi Calm Calm - N/A   Clear
8:55 PM 73.0 °F 23.9 °F 16% 29.70 in 10.0 mi Calm Calm - N/A   Clear
9:15 PM 71.4 °F 24.6 °F 17% 29.71 in 10.0 mi SSW 3.5 mph - N/A   Clear
9:35 PM 68.7 °F 25.0 °F 19% 29.72 in 10.0 mi Calm Calm - N/A   Clear
9:55 PM 67.8 °F 25.7 °F 21% 29.73 in 10.0 mi SE 4.6 mph - N/A   Clear
10:15 PM 67.3 °F 25.3 °F 21% 29.74 in 10.0 mi SSE 3.5 mph - N/A   Clear
10:35 PM 63.3 °F 29.3 °F 28% 29.74 in 10.0 mi Calm Calm - N/A   Clear
10:55 PM 65.5 °F 26.8 °F 23% 29.74 in 10.0 mi Calm Calm - N/A   Clear
11:15 PM 63.0 °F 27.9 °F 27% 29.74 in 10.0 mi ESE 5.8 mph - N/A   Clear
11:35 PM 60.4 °F 28.4 °F 30% 29.74 in 10.0 mi East 5.8 mph - N/A   Clear
11:55 PM 61.5 °F 28.2 °F 28% 29.74 in 10.0 mi SE 6.9 mph - N/A   Clear